sensor_id;sensor_type;location;lat;lon;timestamp;temperature;humidity
55329;DHT22;41205;44.264;19.884;2023-02-28T00:02:20;102.50;2227.20
55329;DHT22;41205;44.264;19.884;2023-02-28T00:04:46;102.40;2227.20
55329;DHT22;41205;44.264;19.884;2023-02-28T00:07:18;102.40;2227.20
55329;DHT22;41205;44.264;19.884;2023-02-28T00:09:44;102.50;2227.20
55329;DHT22;41205;44.264;19.884;2023-02-28T00:12:10;102.50;2227.20
55329;DHT22;41205;44.264;19.884;2023-02-28T00:14:38;102.70;2227.20
55329;DHT22;41205;44.264;19.884;2023-02-28T00:17:04;102.80;2227.20
55329;DHT22;41205;44.264;19.884;2023-02-28T00:19:30;102.90;2227.20
55329;DHT22;41205;44.264;19.884;2023-02-28T00:21:55;102.80;2227.20
55329;DHT22;41205;44.264;19.884;2023-02-28T00:24:21;102.70;2227.20
55329;DHT22;41205;44.264;19.884;2023-02-28T00:26:47;102.70;2227.20
55329;DHT22;41205;44.264;19.884;2023-02-28T00:29:12;102.60;2227.20
55329;DHT22;41205;44.264;19.884;2023-02-28T00:31:38;102.50;2227.20
55329;DHT22;41205;44.264;19.884;2023-02-28T00:34:04;102.70;2227.20
55329;DHT22;41205;44.264;19.884;2023-02-28T00:36:29;102.80;2227.20
55329;DHT22;41205;44.264;19.884;2023-02-28T00:38:55;102.80;2227.20
55329;DHT22;41205;44.264;19.884;2023-02-28T00:41:21;102.90;2227.20
55329;DHT22;41205;44.264;19.884;2023-02-28T00:43:46;102.80;2227.20
55329;DHT22;41205;44.264;19.884;2023-02-28T00:46:12;102.70;2227.20
55329;DHT22;41205;44.264;19.884;2023-02-28T00:48:38;102.80;2227.20
55329;DHT22;41205;44.264;19.884;2023-02-28T00:51:04;102.60;2227.20
55329;DHT22;41205;44.264;19.884;2023-02-28T00:53:30;102.60;2227.20
55329;DHT22;41205;44.264;19.884;2023-02-28T00:55:57;102.40;2227.20
55329;DHT22;41205;44.264;19.884;2023-02-28T00:58:24;102.40;2227.20
55329;DHT22;41205;44.264;19.884;2023-02-28T01:00:51;77.60;2227.20
55329;DHT22;41205;44.264;19.884;2023-02-28T01:03:19;77.50;2227.20
55329;DHT22;41205;44.264;19.884;2023-02-28T01:05:46;77.50;2227.20
55329;DHT22;41205;44.264;19.884;2023-02-28T01:08:12;77.70;2227.20
55329;DHT22;41205;44.264;19.884;2023-02-28T01:10:39;77.70;2227.20
55329;DHT22;41205;44.264;19.884;2023-02-28T01:13:05;102.40;2227.20
55329;DHT22;41205;44.264;19.884;2023-02-28T01:15:31;102.40;2227.20
55329;DHT22;41205;44.264;19.884;2023-02-28T01:17:58;77.60;2227.20
55329;DHT22;41205;44.264;19.884;2023-02-28T01:20:23;102.40;2227.20
55329;DHT22;41205;44.264;19.884;2023-02-28T01:22:49;102.40;2227.20
55329;DHT22;41205;44.264;19.884;2023-02-28T01:25:15;102.40;2227.20
55329;DHT22;41205;44.264;19.884;2023-02-28T01:27:41;77.60;2227.20
55329;DHT22;41205;44.264;19.884;2023-02-28T01:30:08;77.60;2227.20
55329;DHT22;41205;44.264;19.884;2023-02-28T01:32:34;77.50;2227.20
55329;DHT22;41205;44.264;19.884;2023-02-28T01:35:00;77.70;2227.20
55329;DHT22;41205;44.264;19.884;2023-02-28T01:37:26;77.60;2227.20
55329;DHT22;41205;44.264;19.884;2023-02-28T01:39:52;77.50;2227.20
55329;DHT22;41205;44.264;19.884;2023-02-28T01:42:18;77.60;2227.20
55329;DHT22;41205;44.264;19.884;2023-02-28T01:45:20;77.40;2227.20
55329;DHT22;41205;44.264;19.884;2023-02-28T01:47:49;77.40;2227.20
55329;DHT22;41205;44.264;19.884;2023-02-28T01:50:19;77.40;2227.20
55329;DHT22;41205;44.264;19.884;2023-02-28T01:52:47;77.40;2227.20
55329;DHT22;41205;44.264;19.884;2023-02-28T01:55:15;77.50;2227.20
55329;DHT22;41205;44.264;19.884;2023-02-28T01:57:46;77.50;2227.20
55329;DHT22;41205;44.264;19.884;2023-02-28T02:00:17;77.60;2227.20
55329;DHT22;41205;44.264;19.884;2023-02-28T02:02:47;77.60;2227.20
55329;DHT22;41205;44.264;19.884;2023-02-28T02:05:19;77.70;2227.20
55329;DHT22;41205;44.264;19.884;2023-02-28T02:07:48;102.50;2227.20
55329;DHT22;41205;44.264;19.884;2023-02-28T02:10:21;77.70;2227.20
55329;DHT22;41205;44.264;19.884;2023-02-28T02:21:28;77.50;2227.20
55329;DHT22;41205;44.264;19.884;2023-02-28T02:48:05;77.40;2227.20
55329;DHT22;41205;44.264;19.884;2023-02-28T02:50:41;77.50;2227.20
55329;DHT22;41205;44.264;19.884;2023-02-28T02:53:10;77.70;2227.20
55329;DHT22;41205;44.264;19.884;2023-02-28T02:55:40;102.40;2227.20
55329;DHT22;41205;44.264;19.884;2023-02-28T02:58:13;102.50;2227.20
55329;DHT22;41205;44.264;19.884;2023-02-28T03:00:47;102.70;2227.20
55329;DHT22;41205;44.264;19.884;2023-02-28T03:03:15;102.70;2227.20
55329;DHT22;41205;44.264;19.884;2023-02-28T03:05:49;102.60;2227.20
55329;DHT22;41205;44.264;19.884;2023-02-28T03:08:16;102.60;2227.20
55329;DHT22;41205;44.264;19.884;2023-02-28T03:10:44;102.70;2227.20
55329;DHT22;41205;44.264;19.884;2023-02-28T03:24:11;102.80;2227.20
55329;DHT22;41205;44.264;19.884;2023-02-28T03:26:47;102.80;2227.20
55329;DHT22;41205;44.264;19.884;2023-02-28T03:29:41;102.80;2227.20
55329;DHT22;41205;44.264;19.884;2023-02-28T03:32:29;102.80;2227.20
55329;DHT22;41205;44.264;19.884;2023-02-28T03:35:11;102.80;2227.20
55329;DHT22;41205;44.264;19.884;2023-02-28T03:37:40;102.80;2227.20
55329;DHT22;41205;44.264;19.884;2023-02-28T03:40:17;102.60;2227.20
55329;DHT22;41205;44.264;19.884;2023-02-28T03:42:48;102.80;2227.20
55329;DHT22;41205;44.264;19.884;2023-02-28T03:45:22;102.70;2227.20
55329;DHT22;41205;44.264;19.884;2023-02-28T03:48:01;102.80;2227.20
55329;DHT22;41205;44.264;19.884;2023-02-28T03:50:35;102.80;2227.20
55329;DHT22;41205;44.264;19.884;2023-02-28T03:55:42;102.70;2227.20
55329;DHT22;41205;44.264;19.884;2023-02-28T03:58:20;102.60;2227.20
55329;DHT22;41205;44.264;19.884;2023-02-28T04:00:50;102.70;2227.20
55329;DHT22;41205;44.264;19.884;2023-02-28T04:03:19;102.80;2227.20
55329;DHT22;41205;44.264;19.884;2023-02-28T04:05:55;102.50;2227.20
55329;DHT22;41205;44.264;19.884;2023-02-28T04:08:22;102.50;2227.20
55329;DHT22;41205;44.264;19.884;2023-02-28T04:10:57;102.60;2227.20
55329;DHT22;41205;44.264;19.884;2023-02-28T04:13:26;102.50;2227.20
55329;DHT22;41205;44.264;19.884;2023-02-28T04:15:51;102.50;2227.20
55329;DHT22;41205;44.264;19.884;2023-02-28T04:18:17;102.40;2227.20
55329;DHT22;41205;44.264;19.884;2023-02-28T04:20:43;102.50;2227.20
55329;DHT22;41205;44.264;19.884;2023-02-28T04:23:08;102.60;2227.20
55329;DHT22;41205;44.264;19.884;2023-02-28T04:25:34;102.60;2227.20
55329;DHT22;41205;44.264;19.884;2023-02-28T04:28:00;102.70;2227.20
55329;DHT22;41205;44.264;19.884;2023-02-28T04:30:25;102.70;2227.20
55329;DHT22;41205;44.264;19.884;2023-02-28T04:32:51;102.70;2227.20
55329;DHT22;41205;44.264;19.884;2023-02-28T04:35:17;102.70;2227.20
55329;DHT22;41205;44.264;19.884;2023-02-28T04:37:42;102.60;2227.20
55329;DHT22;41205;44.264;19.884;2023-02-28T04:40:09;102.50;2227.20
55329;DHT22;41205;44.264;19.884;2023-02-28T04:42:34;102.40;2227.20
55329;DHT22;41205;44.264;19.884;2023-02-28T04:45:02;102.50;2227.20
55329;DHT22;41205;44.264;19.884;2023-02-28T04:47:28;102.50;2227.20
55329;DHT22;41205;44.264;19.884;2023-02-28T04:49:54;102.50;2227.20
55329;DHT22;41205;44.264;19.884;2023-02-28T04:52:20;102.60;2227.20
55329;DHT22;41205;44.264;19.884;2023-02-28T04:54:46;102.60;2227.20
55329;DHT22;41205;44.264;19.884;2023-02-28T04:57:11;102.50;2227.20
55329;DHT22;41205;44.264;19.884;2023-02-28T04:59:37;102.50;2227.20
55329;DHT22;41205;44.264;19.884;2023-02-28T05:02:03;77.70;2227.20
55329;DHT22;41205;44.264;19.884;2023-02-28T05:04:35;102.40;2227.20
55329;DHT22;41205;44.264;19.884;2023-02-28T05:07:01;102.50;2227.20
55329;DHT22;41205;44.264;19.884;2023-02-28T05:09:27;102.50;2227.20
55329;DHT22;41205;44.264;19.884;2023-02-28T05:11:54;102.50;2227.20
55329;DHT22;41205;44.264;19.884;2023-02-28T05:14:19;102.60;2227.20
55329;DHT22;41205;44.264;19.884;2023-02-28T05:16:45;102.50;2227.20
55329;DHT22;41205;44.264;19.884;2023-02-28T05:19:11;102.60;2227.20
55329;DHT22;41205;44.264;19.884;2023-02-28T05:21:40;102.70;2227.20
55329;DHT22;41205;44.264;19.884;2023-02-28T05:24:09;102.70;2227.20
55329;DHT22;41205;44.264;19.884;2023-02-28T05:26:37;102.50;2227.20
55329;DHT22;41205;44.264;19.884;2023-02-28T05:29:03;102.50;2227.20
55329;DHT22;41205;44.264;19.884;2023-02-28T05:31:29;102.50;2227.20
55329;DHT22;41205;44.264;19.884;2023-02-28T05:33:54;102.50;2227.20
55329;DHT22;41205;44.264;19.884;2023-02-28T05:36:21;102.60;2227.20
55329;DHT22;41205;44.264;19.884;2023-02-28T05:38:48;102.60;2227.20
55329;DHT22;41205;44.264;19.884;2023-02-28T05:41:14;102.50;2227.20
55329;DHT22;41205;44.264;19.884;2023-02-28T05:43:40;102.50;2227.20
55329;DHT22;41205;44.264;19.884;2023-02-28T05:46:08;102.60;2227.20
55329;DHT22;41205;44.264;19.884;2023-02-28T05:48:35;102.60;2227.20
55329;DHT22;41205;44.264;19.884;2023-02-28T05:51:01;102.60;2227.20
55329;DHT22;41205;44.264;19.884;2023-02-28T05:53:28;102.70;2227.20
55329;DHT22;41205;44.264;19.884;2023-02-28T05:55:54;102.50;2227.20
55329;DHT22;41205;44.264;19.884;2023-02-28T05:58:21;102.50;2227.20
55329;DHT22;41205;44.264;19.884;2023-02-28T06:00:47;102.60;2227.20
55329;DHT22;41205;44.264;19.884;2023-02-28T06:03:13;102.60;2227.20
55329;DHT22;41205;44.264;19.884;2023-02-28T06:05:39;102.70;2227.20
55329;DHT22;41205;44.264;19.884;2023-02-28T06:08:05;102.80;2227.20
55329;DHT22;41205;44.264;19.884;2023-02-28T06:10:37;102.70;2227.20
55329;DHT22;41205;44.264;19.884;2023-02-28T06:13:03;102.60;2227.20
55329;DHT22;41205;44.264;19.884;2023-02-28T06:15:29;102.70;2227.20
55329;DHT22;41205;44.264;19.884;2023-02-28T06:17:56;102.80;2227.20
55329;DHT22;41205;44.264;19.884;2023-02-28T06:20:23;102.80;2227.20
55329;DHT22;41205;44.264;19.884;2023-02-28T06:22:49;102.80;2227.20
55329;DHT22;41205;44.264;19.884;2023-02-28T06:25:16;102.80;2227.20
55329;DHT22;41205;44.264;19.884;2023-02-28T06:27:42;102.80;2227.20
55329;DHT22;41205;44.264;19.884;2023-02-28T06:30:10;102.70;2227.20
55329;DHT22;41205;44.264;19.884;2023-02-28T06:32:36;102.80;2227.20
55329;DHT22;41205;44.264;19.884;2023-02-28T06:35:02;102.90;2227.20
55329;DHT22;41205;44.264;19.884;2023-02-28T06:37:28;102.90;2227.20
55329;DHT22;41205;44.264;19.884;2023-02-28T06:39:55;102.90;2227.20
55329;DHT22;41205;44.264;19.884;2023-02-28T06:42:22;102.90;2227.20
55329;DHT22;41205;44.264;19.884;2023-02-28T06:44:54;102.80;2227.20
55329;DHT22;41205;44.264;19.884;2023-02-28T06:47:20;102.80;2227.20
55329;DHT22;41205;44.264;19.884;2023-02-28T06:49:46;102.90;2227.20
55329;DHT22;41205;44.264;19.884;2023-02-28T06:52:12;102.80;2227.20
55329;DHT22;41205;44.264;19.884;2023-02-28T06:54:38;102.90;2227.20
55329;DHT22;41205;44.264;19.884;2023-02-28T06:57:04;103.00;2227.20
55329;DHT22;41205;44.264;19.884;2023-02-28T06:59:30;102.90;2227.20
55329;DHT22;41205;44.264;19.884;2023-02-28T07:01:55;102.80;2227.20
55329;DHT22;41205;44.264;19.884;2023-02-28T07:04:22;103.00;2227.20
55329;DHT22;41205;44.264;19.884;2023-02-28T07:06:47;103.00;2227.20
55329;DHT22;41205;44.264;19.884;2023-02-28T07:09:13;102.90;2227.20
55329;DHT22;41205;44.264;19.884;2023-02-28T07:11:40;102.90;2227.20
55329;DHT22;41205;44.264;19.884;2023-02-28T07:14:06;102.80;2227.20
55329;DHT22;41205;44.264;19.884;2023-02-28T07:16:32;102.90;2227.20
55329;DHT22;41205;44.264;19.884;2023-02-28T07:18:58;102.40;2227.20
55329;DHT22;41205;44.264;19.884;2023-02-28T07:21:24;102.60;2227.20
55329;DHT22;41205;44.264;19.884;2023-02-28T07:23:50;102.80;2227.20
55329;DHT22;41205;44.264;19.884;2023-02-28T07:26:18;102.80;2227.20
55329;DHT22;41205;44.264;19.884;2023-02-28T07:28:45;102.80;2227.20
55329;DHT22;41205;44.264;19.884;2023-02-28T07:31:13;102.90;2227.20
55329;DHT22;41205;44.264;19.884;2023-02-28T07:33:43;103.00;2227.20
55329;DHT22;41205;44.264;19.884;2023-02-28T07:36:12;103.10;2227.20
55329;DHT22;41205;44.264;19.884;2023-02-28T07:38:45;103.10;2227.20
55329;DHT22;41205;44.264;19.884;2023-02-28T07:41:17;103.20;2227.20
55329;DHT22;41205;44.264;19.884;2023-02-28T07:43:43;103.20;2227.20
55329;DHT22;41205;44.264;19.884;2023-02-28T07:46:12;103.20;2227.20
55329;DHT22;41205;44.264;19.884;2023-02-28T07:48:38;103.30;2227.20
55329;DHT22;41205;44.264;19.884;2023-02-28T07:51:04;103.30;2227.20
55329;DHT22;41205;44.264;19.884;2023-02-28T07:53:30;103.30;2227.20
55329;DHT22;41205;44.264;19.884;2023-02-28T07:55:56;103.20;2227.20
55329;DHT22;41205;44.264;19.884;2023-02-28T07:58:23;103.00;2227.20
55329;DHT22;41205;44.264;19.884;2023-02-28T08:00:49;103.20;2227.20
55329;DHT22;41205;44.264;19.884;2023-02-28T08:03:15;128.00;2252.80
55329;DHT22;41205;44.264;19.884;2023-02-28T08:05:41;128.20;2252.80
55329;DHT22;41205;44.264;19.884;2023-02-28T08:08:08;128.40;2252.80
55329;DHT22;41205;44.264;19.884;2023-02-28T08:10:34;128.30;2252.80
55329;DHT22;41205;44.264;19.884;2023-02-28T08:13:00;128.50;2252.80
55329;DHT22;41205;44.264;19.884;2023-02-28T08:15:26;128.70;2252.80
55329;DHT22;41205;44.264;19.884;2023-02-28T08:17:52;153.60;2252.80
55329;DHT22;41205;44.264;19.884;2023-02-28T08:20:17;128.90;2252.80
55329;DHT22;41205;44.264;19.884;2023-02-28T08:22:43;153.60;2252.80
55329;DHT22;41205;44.264;19.884;2023-02-28T08:25:09;153.80;2252.80
55329;DHT22;41205;44.264;19.884;2023-02-28T08:27:35;153.70;2252.80
55329;DHT22;41205;44.264;19.884;2023-02-28T08:30:01;153.80;2252.80
55329;DHT22;41205;44.264;19.884;2023-02-28T08:32:27;154.10;2252.80
55329;DHT22;41205;44.264;19.884;2023-02-28T08:34:52;154.00;2252.80
55329;DHT22;41205;44.264;19.884;2023-02-28T08:37:18;153.70;2252.80
55329;DHT22;41205;44.264;19.884;2023-02-28T08:39:44;154.10;2252.80
55329;DHT22;41205;44.264;19.884;2023-02-28T08:42:09;154.50;2252.80
55329;DHT22;41205;44.264;19.884;2023-02-28T08:44:35;179.40;2252.80
55329;DHT22;41205;44.264;19.884;2023-02-28T08:47:01;179.40;2252.80
55329;DHT22;41205;44.264;19.884;2023-02-28T08:49:26;179.80;2252.80
55329;DHT22;41205;44.264;19.884;2023-02-28T08:51:52;180.00;2252.80
55329;DHT22;41205;44.264;19.884;2023-02-28T08:54:19;179.90;2252.80
55329;DHT22;41205;44.264;19.884;2023-02-28T08:56:46;179.80;2252.80
55329;DHT22;41205;44.264;19.884;2023-02-28T08:59:14;179.80;2252.80
55329;DHT22;41205;44.264;19.884;2023-02-28T09:01:40;179.70;2252.80
55329;DHT22;41205;44.264;19.884;2023-02-28T09:04:07;179.60;2252.80
55329;DHT22;41205;44.264;19.884;2023-02-28T09:06:35;179.50;2252.80
55329;DHT22;41205;44.264;19.884;2023-02-28T09:09:01;179.40;2252.80
55329;DHT22;41205;44.264;19.884;2023-02-28T09:11:28;179.40;2252.80
55329;DHT22;41205;44.264;19.884;2023-02-28T09:13:54;179.40;2252.80
55329;DHT22;41205;44.264;19.884;2023-02-28T09:16:21;179.30;2252.80
55329;DHT22;41205;44.264;19.884;2023-02-28T09:18:47;179.40;2252.80
55329;DHT22;41205;44.264;19.884;2023-02-28T09:21:16;179.50;2252.80
55329;DHT22;41205;44.264;19.884;2023-02-28T09:23:43;179.50;2252.80
55329;DHT22;41205;44.264;19.884;2023-02-28T09:26:20;179.30;2252.80
55329;DHT22;41205;44.264;19.884;2023-02-28T09:28:47;179.20;2252.80
55329;DHT22;41205;44.264;19.884;2023-02-28T09:31:16;154.50;2252.80
55329;DHT22;41205;44.264;19.884;2023-02-28T09:33:42;154.00;2252.80
55329;DHT22;41205;44.264;19.884;2023-02-28T09:36:08;154.20;2252.80
55329;DHT22;41205;44.264;19.884;2023-02-28T09:38:34;154.40;2252.80
55329;DHT22;41205;44.264;19.884;2023-02-28T09:41:03;154.20;2252.80
55329;DHT22;41205;44.264;19.884;2023-02-28T09:43:34;154.10;2252.80
55329;DHT22;41205;44.264;19.884;2023-02-28T09:48:49;154.10;2252.80
55329;DHT22;41205;44.264;19.884;2023-02-28T09:54:24;153.80;2252.80
55329;DHT22;41205;44.264;19.884;2023-02-28T09:57:08;153.90;2252.80
55329;DHT22;41205;44.264;19.884;2023-02-28T09:59:50;154.00;2252.80
55329;DHT22;41205;44.264;19.884;2023-02-28T10:05:16;154.50;2252.80
55329;DHT22;41205;44.264;19.884;2023-02-28T10:10:23;153.90;2252.80
55329;DHT22;41205;44.264;19.884;2023-02-28T10:12:52;154.30;2252.80
55329;DHT22;41205;44.264;19.884;2023-02-28T10:15:21;154.40;2252.80
55329;DHT22;41205;44.264;19.884;2023-02-28T10:17:54;154.20;2252.80
55329;DHT22;41205;44.264;19.884;2023-02-28T10:20:23;154.20;2252.80
55329;DHT22;41205;44.264;19.884;2023-02-28T10:25:50;153.80;2252.80
55329;DHT22;41205;44.264;19.884;2023-02-28T10:31:21;128.90;2252.80
55329;DHT22;41205;44.264;19.884;2023-02-28T10:33:47;128.60;2252.80
55329;DHT22;41205;44.264;19.884;2023-02-28T10:36:18;153.60;2252.80
55329;DHT22;41205;44.264;19.884;2023-02-28T10:38:46;153.70;2252.80
55329;DHT22;41205;44.264;19.884;2023-02-28T10:41:27;153.70;2252.80
55329;DHT22;41205;44.264;19.884;2023-02-28T10:47:17;154.10;2252.80
55329;DHT22;41205;44.264;19.884;2023-02-28T10:49:50;153.60;2252.80
55329;DHT22;41205;44.264;19.884;2023-02-28T10:52:38;153.90;2252.80
55329;DHT22;41205;44.264;19.884;2023-02-28T10:55:18;154.40;2252.80
55329;DHT22;41205;44.264;19.884;2023-02-28T10:57:44;179.20;2252.80
55329;DHT22;41205;44.264;19.884;2023-02-28T11:00:20;154.50;2252.80
55329;DHT22;41205;44.264;19.884;2023-02-28T11:02:47;153.90;2252.80
55329;DHT22;41205;44.264;19.884;2023-02-28T11:05:34;154.30;2252.80
55329;DHT22;41205;44.264;19.884;2023-02-28T11:08:10;154.10;2252.80
55329;DHT22;41205;44.264;19.884;2023-02-28T11:10:38;154.30;2252.80
55329;DHT22;41205;44.264;19.884;2023-02-28T11:13:05;154.40;2252.80
55329;DHT22;41205;44.264;19.884;2023-02-28T11:18:54;128.80;2252.80
55329;DHT22;41205;44.264;19.884;2023-02-28T11:21:33;128.70;2252.80
55329;DHT22;41205;44.264;19.884;2023-02-28T11:26:45;154.00;2252.80
55329;DHT22;41205;44.264;19.884;2023-02-28T11:29:20;154.50;2252.80
55329;DHT22;41205;44.264;19.884;2023-02-28T11:32:18;154.30;2252.80
55329;DHT22;41205;44.264;19.884;2023-02-28T11:34:45;154.30;2252.80
55329;DHT22;41205;44.264;19.884;2023-02-28T11:37:17;154.40;2252.80
55329;DHT22;41205;44.264;19.884;2023-02-28T11:39:44;179.20;2252.80
55329;DHT22;41205;44.264;19.884;2023-02-28T11:45:00;153.90;2252.80
55329;DHT22;41205;44.264;19.884;2023-02-28T11:47:38;154.00;2252.80
55329;DHT22;41205;44.264;19.884;2023-02-28T11:52:54;154.10;2252.80
55329;DHT22;41205;44.264;19.884;2023-02-28T11:55:25;154.00;2252.80
55329;DHT22;41205;44.264;19.884;2023-02-28T12:11:51;153.70;2252.80
55329;DHT22;41205;44.264;19.884;2023-02-28T12:23:09;153.90;2252.80
55329;DHT22;41205;44.264;19.884;2023-02-28T12:28:02;153.90;2252.80
55329;DHT22;41205;44.264;19.884;2023-02-28T12:30:32;154.00;2252.80
55329;DHT22;41205;44.264;19.884;2023-02-28T12:33:14;153.90;2252.80
55329;DHT22;41205;44.264;19.884;2023-02-28T12:35:57;154.00;2252.80
55329;DHT22;41205;44.264;19.884;2023-02-28T12:38:27;154.20;2252.80
55329;DHT22;41205;44.264;19.884;2023-02-28T12:41:00;154.00;2252.80
55329;DHT22;41205;44.264;19.884;2023-02-28T12:43:44;153.70;2252.80
55329;DHT22;41205;44.264;19.884;2023-02-28T12:49:47;153.90;2252.80
55329;DHT22;41205;44.264;19.884;2023-02-28T12:52:19;153.70;2252.80
55329;DHT22;41205;44.264;19.884;2023-02-28T12:55:03;153.80;2252.80
55329;DHT22;41205;44.264;19.884;2023-02-28T13:00:25;153.90;2252.80
55329;DHT22;41205;44.264;19.884;2023-02-28T13:08:53;153.90;2252.80
55329;DHT22;41205;44.264;19.884;2023-02-28T13:11:33;153.80;2252.80
55329;DHT22;41205;44.264;19.884;2023-02-28T13:14:04;153.80;2252.80
55329;DHT22;41205;44.264;19.884;2023-02-28T13:19:39;153.60;2252.80
55329;DHT22;41205;44.264;19.884;2023-02-28T13:22:17;153.70;2252.80
55329;DHT22;41205;44.264;19.884;2023-02-28T13:29:50;128.80;2252.80
55329;DHT22;41205;44.264;19.884;2023-02-28T13:32:28;153.80;2252.80
55329;DHT22;41205;44.264;19.884;2023-02-28T13:39:57;153.70;2252.80
55329;DHT22;41205;44.264;19.884;2023-02-28T13:47:52;128.90;2252.80
55329;DHT22;41205;44.264;19.884;2023-02-28T14:06:36;153.60;2252.80
55329;DHT22;41205;44.264;19.884;2023-02-28T14:09:15;128.60;2252.80
55329;DHT22;41205;44.264;19.884;2023-02-28T14:11:44;128.60;2252.80
55329;DHT22;41205;44.264;19.884;2023-02-28T14:17:03;128.70;2252.80
55329;DHT22;41205;44.264;19.884;2023-02-28T14:19:31;153.60;2252.80
55329;DHT22;41205;44.264;19.884;2023-02-28T14:36:44;128.70;2252.80
55329;DHT22;41205;44.264;19.884;2023-02-28T14:39:14;128.40;2252.80
55329;DHT22;41205;44.264;19.884;2023-02-28T14:41:41;128.50;2252.80
55329;DHT22;41205;44.264;19.884;2023-02-28T14:44:27;128.50;2252.80
55329;DHT22;41205;44.264;19.884;2023-02-28T14:49:28;128.70;2252.80
55329;DHT22;41205;44.264;19.884;2023-02-28T14:54:36;103.20;2227.20
55329;DHT22;41205;44.264;19.884;2023-02-28T14:57:02;128.00;2252.80
55329;DHT22;41205;44.264;19.884;2023-02-28T14:59:34;128.10;2252.80
55329;DHT22;41205;44.264;19.884;2023-02-28T15:02:34;128.40;2252.80
55329;DHT22;41205;44.264;19.884;2023-02-28T15:05:10;128.30;2252.80
55329;DHT22;41205;44.264;19.884;2023-02-28T15:07:43;128.30;2252.80
55329;DHT22;41205;44.264;19.884;2023-02-28T15:10:19;128.30;2252.80
55329;DHT22;41205;44.264;19.884;2023-02-28T15:12:53;128.60;2252.80
55329;DHT22;41205;44.264;19.884;2023-02-28T15:15:20;128.60;2252.80
55329;DHT22;41205;44.264;19.884;2023-02-28T15:17:50;128.50;2252.80
55329;DHT22;41205;44.264;19.884;2023-02-28T15:20:18;128.70;2252.80
55329;DHT22;41205;44.264;19.884;2023-02-28T15:22:46;128.70;2252.80
55329;DHT22;41205;44.264;19.884;2023-02-28T15:25:18;128.80;2252.80
55329;DHT22;41205;44.264;19.884;2023-02-28T15:27:50;128.60;2252.80
55329;DHT22;41205;44.264;19.884;2023-02-28T15:30:24;128.70;2252.80
55329;DHT22;41205;44.264;19.884;2023-02-28T15:35:30;128.60;2252.80
55329;DHT22;41205;44.264;19.884;2023-02-28T15:38:02;128.70;2252.80
55329;DHT22;41205;44.264;19.884;2023-02-28T15:40:40;128.80;2252.80
55329;DHT22;41205;44.264;19.884;2023-02-28T15:43:18;128.80;2252.80
55329;DHT22;41205;44.264;19.884;2023-02-28T15:45:45;128.80;2252.80
55329;DHT22;41205;44.264;19.884;2023-02-28T15:48:42;128.50;2252.80
55329;DHT22;41205;44.264;19.884;2023-02-28T15:51:16;128.70;2252.80
55329;DHT22;41205;44.264;19.884;2023-02-28T15:53:50;128.80;2252.80
55329;DHT22;41205;44.264;19.884;2023-02-28T15:56:26;128.60;2252.80
55329;DHT22;41205;44.264;19.884;2023-02-28T15:58:57;128.30;2252.80
55329;DHT22;41205;44.264;19.884;2023-02-28T16:01:28;128.30;2252.80
55329;DHT22;41205;44.264;19.884;2023-02-28T16:03:58;128.40;2252.80
55329;DHT22;41205;44.264;19.884;2023-02-28T16:06:32;128.40;2252.80
55329;DHT22;41205;44.264;19.884;2023-02-28T16:08:58;128.60;2252.80
55329;DHT22;41205;44.264;19.884;2023-02-28T16:11:24;128.40;2252.80
55329;DHT22;41205;44.264;19.884;2023-02-28T16:13:50;128.10;2252.80
55329;DHT22;41205;44.264;19.884;2023-02-28T16:16:22;128.10;2252.80
55329;DHT22;41205;44.264;19.884;2023-02-28T16:18:49;128.30;2252.80
55329;DHT22;41205;44.264;19.884;2023-02-28T16:21:15;128.40;2252.80
55329;DHT22;41205;44.264;19.884;2023-02-28T16:23:41;128.10;2252.80
55329;DHT22;41205;44.264;19.884;2023-02-28T16:26:08;103.20;2227.20
55329;DHT22;41205;44.264;19.884;2023-02-28T16:28:37;128.10;2252.80
55329;DHT22;41205;44.264;19.884;2023-02-28T16:31:05;128.30;2252.80
55329;DHT22;41205;44.264;19.884;2023-02-28T16:33:32;128.10;2252.80
55329;DHT22;41205;44.264;19.884;2023-02-28T16:35:59;128.20;2252.80
55329;DHT22;41205;44.264;19.884;2023-02-28T16:38:24;103.30;2227.20
55329;DHT22;41205;44.264;19.884;2023-02-28T16:40:51;128.10;2252.80
55329;DHT22;41205;44.264;19.884;2023-02-28T16:43:21;103.30;2227.20
55329;DHT22;41205;44.264;19.884;2023-02-28T16:45:48;103.20;2227.20
55329;DHT22;41205;44.264;19.884;2023-02-28T16:48:16;103.30;2227.20
55329;DHT22;41205;44.264;19.884;2023-02-28T16:50:42;103.10;2227.20
55329;DHT22;41205;44.264;19.884;2023-02-28T16:53:10;128.00;2252.80
55329;DHT22;41205;44.264;19.884;2023-02-28T16:55:36;128.10;2252.80
55329;DHT22;41205;44.264;19.884;2023-02-28T16:58:03;128.30;2252.80
55329;DHT22;41205;44.264;19.884;2023-02-28T17:00:31;128.20;2252.80
55329;DHT22;41205;44.264;19.884;2023-02-28T17:02:57;128.40;2252.80
55329;DHT22;41205;44.264;19.884;2023-02-28T17:05:25;128.40;2252.80
55329;DHT22;41205;44.264;19.884;2023-02-28T17:07:51;128.60;2252.80
55329;DHT22;41205;44.264;19.884;2023-02-28T17:10:21;128.70;2252.80
55329;DHT22;41205;44.264;19.884;2023-02-28T17:12:48;128.60;2252.80
55329;DHT22;41205;44.264;19.884;2023-02-28T17:15:15;128.70;2252.80
55329;DHT22;41205;44.264;19.884;2023-02-28T17:17:43;128.60;2252.80
55329;DHT22;41205;44.264;19.884;2023-02-28T17:20:21;128.60;2252.80
55329;DHT22;41205;44.264;19.884;2023-02-28T17:22:54;128.70;2252.80
55329;DHT22;41205;44.264;19.884;2023-02-28T17:25:21;128.70;2252.80
55329;DHT22;41205;44.264;19.884;2023-02-28T17:27:47;128.30;2252.80
55329;DHT22;41205;44.264;19.884;2023-02-28T17:30:19;128.50;2252.80
55329;DHT22;41205;44.264;19.884;2023-02-28T17:32:45;128.40;2252.80
55329;DHT22;41205;44.264;19.884;2023-02-28T17:35:11;128.30;2252.80
55329;DHT22;41205;44.264;19.884;2023-02-28T17:37:37;128.40;2252.80
55329;DHT22;41205;44.264;19.884;2023-02-28T17:40:06;128.40;2252.80
55329;DHT22;41205;44.264;19.884;2023-02-28T17:42:32;128.40;2252.80
55329;DHT22;41205;44.264;19.884;2023-02-28T17:44:58;128.30;2252.80